Time;durP1;ratioP1;P1;durP2;ratioP2;P2;SDS_P1;SDS_P2;PMS_P1;PMS_P2;Temp;Humidity;BMP_temperature;BMP_pressure;BME280_temperature;BME280_humidity;BME280_pressure;Samples;Min_cycle;Max_cycle;Signal;HPM_P1;HPM_P2
2022/04/18 00:00:09;;;;;;;123.38;112.22;;;12.40;42.00;;;;;;5036260;28;20514;-75
2022/04/18 00:02:36;;;;;;;124.13;113.03;;;12.20;42.00;;;;;;5033090;28;21076;-75
2022/04/18 00:05:03;;;;;;;124.78;113.68;;;12.00;42.00;;;;;;5035977;28;20049;-75
2022/04/18 00:07:30;;;;;;;122.78;111.60;;;12.00;42.40;;;;;;5036052;28;20045;-75
2022/04/18 00:09:58;;;;;;;123.25;112.03;;;11.90;42.50;;;;;;5035858;28;20046;-75
2022/04/18 00:12:28;;;;;;;121.97;111.00;;;11.80;42.50;;;;;;5053432;28;20065;-75
2022/04/18 00:14:55;;;;;;;124.15;112.97;;;11.80;42.70;;;;;;5035709;28;20487;-75
2022/04/18 00:17:22;;;;;;;122.13;111.13;;;11.70;42.70;;;;;;5019350;28;20064;-75
2022/04/18 00:19:49;;;;;;;125.00;113.75;;;11.70;42.90;;;;;;5035665;28;20046;-75
2022/04/18 00:22:16;;;;;;;124.20;112.90;;;11.70;42.90;;;;;;5035220;28;20049;-75
2022/04/18 00:24:43;;;;;;;122.55;111.40;;;11.80;42.90;;;;;;5035769;28;20041;-75
2022/04/18 00:27:10;;;;;;;126.50;115.00;;;11.80;43.00;;;;;;5053588;28;20065;-75
2022/04/18 00:29:38;;;;;;;124.68;113.25;;;11.80;42.90;;;;;;5018965;28;20045;-75
2022/04/18 00:32:07;;;;;;;123.03;111.95;;;11.80;42.80;;;;;;5018989;28;20053;-75
2022/04/18 00:34:34;;;;;;;123.80;112.53;;;11.80;42.80;;;;;;5036026;28;20050;-75
2022/04/18 00:37:01;;;;;;;126.57;114.97;;;11.70;42.70;;;;;;5019642;28;20057;-75
2022/04/18 00:39:28;;;;;;;123.93;112.57;;;11.70;42.90;;;;;;4999625;28;20125;-75
2022/04/18 00:41:55;;;;;;;126.25;114.65;;;11.70;43.30;;;;;;5015536;28;20057;-75
2022/04/18 00:44:22;;;;;;;125.15;113.65;;;11.60;43.00;;;;;;4999232;28;20050;-75
2022/04/18 00:46:50;;;;;;;126.53;114.72;;;11.60;43.10;;;;;;5015869;28;20054;-75
2022/04/18 00:49:17;;;;;;;124.32;112.82;;;11.60;43.20;;;;;;5015576;28;20046;-75
2022/04/18 00:51:45;;;;;;;123.60;112.30;;;11.60;43.30;;;;;;4998925;28;20057;-74
2022/04/18 00:54:13;;;;;;;125.93;114.22;;;11.60;43.30;;;;;;5015476;28;20081;-74
2022/04/18 00:56:40;;;;;;;124.38;112.95;;;11.50;43.20;;;;;;5015019;28;20488;-75
2022/04/18 00:59:08;;;;;;;124.68;113.18;;;11.50;43.30;;;;;;5033122;28;20045;-75
2022/04/18 01:01:38;;;;;;;123.38;111.85;;;11.50;43.30;;;;;;5015436;28;20050;-75
2022/04/18 01:04:07;;;;;;;124.03;112.70;;;11.40;43.40;;;;;;4999380;28;20061;-75
2022/04/18 01:06:34;;;;;;;125.05;113.47;;;11.40;43.40;;;;;;5015376;28;20052;-75
2022/04/18 01:09:03;;;;;;;123.35;111.95;;;11.40;43.40;;;;;;5014884;28;20551;-75
2022/04/18 01:11:32;;;;;;;124.20;112.68;;;11.40;43.40;;;;;;4998819;28;20054;-75
2022/04/18 01:14:36;;;;;;;123.97;112.47;;;11.40;43.40;;;;;;4993867;28;20050;-75
2022/04/18 01:17:15;;;;;;;124.68;113.07;;;11.40;43.40;;;;;;5029868;28;20049;-75
2022/04/18 01:20:02;;;;;;;124.70;113.07;;;11.40;43.40;;;;;;5035362;28;20076;-75
2022/04/18 01:22:46;;;;;;;125.18;113.53;;;11.40;43.30;;;;;;5035005;28;20054;-75
2022/04/18 01:30:59;;;;;;;;;;;11.30;43.20;;;;;;5020582;28;20049;-75
2022/04/18 01:33:27;;;;;;;124.95;113.22;;;11.30;43.70;;;;;;5022309;28;19932;-75
2022/04/18 01:35:54;;;;;;;124.57;112.88;;;11.30;43.20;;;;;;5038695;28;20188;-75
2022/04/18 01:38:22;;;;;;;124.57;113.18;;;11.30;43.30;;;;;;5037920;28;20061;-75
2022/04/18 01:40:49;;;;;;;125.65;113.95;;;11.20;43.30;;;;;;5038086;28;20049;-75
2022/04/18 01:43:16;;;;;;;125.70;114.00;;;11.20;43.30;;;;;;5021693;28;20139;-75
2022/04/18 01:45:43;;;;;;;126.05;114.50;;;11.20;43.50;;;;;;5038098;28;20483;-74
2022/04/18 01:48:19;;;;;;;125.88;114.18;;;11.20;43.50;;;;;;5016090;28;20140;-75
2022/04/18 01:50:46;;;;;;;126.53;114.43;;;11.20;43.60;;;;;;5017807;28;20081;-75
2022/04/18 01:53:14;;;;;;;125.65;113.97;;;11.20;43.50;;;;;;5036129;28;20106;-75
2022/04/18 01:55:43;;;;;;;125.22;113.40;;;11.10;43.60;;;;;;5018224;28;20050;-75
2022/04/18 01:58:11;;;;;;;124.25;112.85;;;11.10;43.60;;;;;;5034721;28;20053;-74
2022/04/18 02:00:38;;;;;;;125.50;113.82;;;11.10;43.50;;;;;;5018097;28;20076;-74
2022/04/18 02:03:05;;;;;;;126.65;114.82;;;11.10;43.60;;;;;;5034444;28;20141;-75
2022/04/18 02:05:32;;;;;;;125.63;113.82;;;11.10;43.50;;;;;;5034646;28;20141;-75
2022/04/18 02:07:59;;;;;;;125.85;114.22;;;11.00;43.40;;;;;;5035485;28;20049;-74
2022/04/18 02:10:26;;;;;;;126.55;114.72;;;10.90;43.40;;;;;;5018047;28;20054;-75
2022/04/18 02:12:54;;;;;;;126.40;114.93;;;10.80;43.50;;;;;;5034710;28;20054;-74
2022/04/18 02:15:22;;;;;;;125.82;114.22;;;10.80;43.70;;;;;;5026418;28;20053;-74
2022/04/18 02:17:58;;;;;;;124.18;112.78;;;10.70;43.90;;;;;;5001235;28;20050;-75
2022/04/18 02:20:24;;;;;;;125.30;113.82;;;10.70;43.90;;;;;;5035766;28;20513;-74
2022/04/18 02:22:52;;;;;;;124.88;113.13;;;10.70;44.00;;;;;;5034592;28;20060;-75
2022/04/18 02:25:19;;;;;;;126.20;114.55;;;10.70;44.00;;;;;;5017936;28;20506;-74
2022/04/18 02:27:46;;;;;;;124.85;113.05;;;10.70;44.10;;;;;;5000995;28;21052;-74
2022/04/18 02:30:16;;;;;;;124.53;112.90;;;10.60;44.10;;;;;;5017581;28;20053;-75
2022/04/18 02:32:50;;;;;;;125.38;113.60;;;10.70;44.20;;;;;;5001177;28;20535;-75
2022/04/18 02:35:19;;;;;;;125.13;113.43;;;10.70;44.20;;;;;;5017681;28;20054;-75
2022/04/18 02:37:48;;;;;;;125.22;113.82;;;10.70;44.20;;;;;;5001091;28;20405;-74
2022/04/18 02:40:19;;;;;;;125.65;114.05;;;10.60;44.10;;;;;;5001374;28;20046;-74
2022/04/18 02:42:47;;;;;;;124.20;112.75;;;10.70;44.30;;;;;;5000032;28;20108;-75
2022/04/18 02:45:19;;;;;;;125.35;113.80;;;10.70;44.30;;;;;;5017556;28;20112;-74
2022/04/18 02:48:05;;;;;;;122.97;111.45;;;10.60;44.30;;;;;;5017181;28;20464;-74
2022/04/18 02:50:35;;;;;;;124.07;112.57;;;10.60;44.30;;;;;;5000937;28;20058;-74
2022/04/18 02:53:02;;;;;;;125.40;113.15;;;10.60;44.40;;;;;;5000917;28;20502;-75
2022/04/18 02:55:55;;;;;;;124.07;112.53;;;10.60;44.40;;;;;;5032858;28;20385;-74
2022/04/18 02:58:23;;;;;;;124.75;113.18;;;10.50;44.40;;;;;;5006915;28;20510;-75
2022/04/18 03:00:52;;;;;;;124.13;112.63;;;10.50;44.40;;;;;;5020529;28;20554;-74
2022/04/18 03:03:19;;;;;;;124.88;113.35;;;10.50;44.30;;;;;;5054953;28;20495;-74
2022/04/18 03:05:46;;;;;;;123.45;112.00;;;10.50;44.50;;;;;;5020825;28;20726;-74
2022/04/18 03:08:14;;;;;;;124.10;112.60;;;10.50;44.50;;;;;;5036906;28;20058;-74
2022/04/18 03:13:29;;;;;;;124.13;112.40;;;10.50;44.50;;;;;;5020366;28;20052;-74
2022/04/18 03:15:57;;;;;;;123.18;111.38;;;10.50;44.60;;;;;;5036862;28;20057;-75
2022/04/18 03:18:26;;;;;;;123.10;111.50;;;10.50;44.60;;;;;;5020106;28;20049;-75
2022/04/18 03:20:53;;;;;;;123.82;112.22;;;10.40;44.40;;;;;;5036785;28;20053;-74
2022/04/18 03:23:20;;;;;;;124.05;112.28;;;10.40;44.50;;;;;;5036501;28;20081;-74
2022/04/18 03:26:05;;;;;;;;;;;10.40;44.60;;;;;;5037322;28;20050;-74
2022/04/18 03:28:43;;;;;;;125.68;113.78;;;10.40;44.70;;;;;;5020210;28;20019;-74
2022/04/18 03:31:12;;;;;;;122.85;111.15;;;10.30;44.50;;;;;;5036260;28;20042;-75
2022/04/18 03:33:39;;;;;;;123.30;111.60;;;10.30;44.60;;;;;;5031244;28;20564;-74
2022/04/18 03:41:37;;;;;;;124.60;113.00;;;10.30;44.80;;;;;;5000173;28;20049;-74
2022/04/18 03:44:04;;;;;;;123.63;111.95;;;10.20;44.70;;;;;;5016833;28;20046;-74
2022/04/18 03:46:32;;;;;;;123.95;112.20;;;10.20;44.90;;;;;;5000227;28;20045;-74
2022/04/18 03:49:00;;;;;;;123.07;111.50;;;10.20;44.90;;;;;;5016753;28;20826;-74
2022/04/18 03:51:27;;;;;;;123.25;111.40;;;10.20;44.90;;;;;;5032442;28;20137;-75
2022/04/18 03:53:55;;;;;;;123.88;112.28;;;10.10;44.90;;;;;;5000113;28;20050;-74
2022/04/18 03:56:24;;;;;;;123.40;111.78;;;10.10;44.90;;;;;;5016495;28;20046;-74
2022/04/18 03:59:10;;;;;;;123.50;111.50;;;10.10;45.00;;;;;;5016381;28;20061;-74
2022/04/18 04:01:56;;;;;;;124.65;112.45;;;10.10;45.20;;;;;;5015921;28;20086;-74
2022/04/18 04:04:24;;;;;;;122.72;110.93;;;10.10;45.20;;;;;;4999522;28;20100;-74
2022/04/18 04:06:52;;;;;;;124.60;112.80;;;10.10;45.20;;;;;;5015889;28;20054;-74
2022/04/18 04:09:20;;;;;;;122.70;110.97;;;10.00;45.20;;;;;;5013942;28;20050;-74
2022/04/18 04:11:47;;;;;;;124.18;112.38;;;10.00;45.30;;;;;;5015612;28;20053;-74
2022/04/18 04:14:14;;;;;;;123.25;111.65;;;10.00;45.80;;;;;;5015958;28;20054;-74
2022/04/18 04:16:41;;;;;;;124.45;112.65;;;9.90;45.40;;;;;;5015596;28;20053;-74
2022/04/18 04:19:09;;;;;;;124.55;112.65;;;9.90;45.40;;;;;;5032070;28;20085;-74
2022/04/18 04:21:37;;;;;;;123.05;111.03;;;9.90;45.50;;;;;;5015986;28;20056;-74
2022/04/18 04:24:06;;;;;;;122.22;110.63;;;9.90;45.50;;;;;;5015983;28;20045;-74
2022/04/18 04:26:41;;;;;;;122.53;110.90;;;9.90;45.60;;;;;;5015902;28;20049;-75
2022/04/18 04:29:12;;;;;;;122.03;110.32;;;9.80;45.60;;;;;;5015510;28;20046;-74
2022/04/18 04:32:05;;;;;;;122.95;111.15;;;9.80;45.70;;;;;;5015805;28;20045;-74
2022/04/18 04:34:35;;;;;;;122.43;110.88;;;9.80;45.80;;;;;;5015690;28;20046;-74
2022/04/18 04:37:19;;;;;;;122.93;111.13;;;9.80;45.80;;;;;;5015432;28;20054;-74
2022/04/18 04:39:49;;;;;;;123.20;111.60;;;9.70;45.90;;;;;;5015647;28;20049;-74
2022/04/18 04:42:17;;;;;;;123.25;111.47;;;9.70;46.10;;;;;;5033828;28;20057;-74
2022/04/18 04:44:45;;;;;;;123.25;111.47;;;9.70;46.20;;;;;;5052974;28;20057;-74
2022/04/18 04:47:19;;;;;;;123.90;112.20;;;9.70;46.40;;;;;;5018403;28;20484;-74
2022/04/18 04:49:48;;;;;;;123.90;112.07;;;9.70;46.40;;;;;;5018820;28;20050;-74
2022/04/18 04:52:21;;;;;;;121.70;110.10;;;9.70;46.40;;;;;;5035054;28;20523;-74
2022/04/18 04:54:49;;;;;;;122.07;110.55;;;9.70;46.40;;;;;;5018744;28;20711;-74
2022/04/18 04:57:33;;;;;;;123.35;111.68;;;9.70;46.60;;;;;;5034901;28;20050;-74
2022/04/18 05:00:19;;;;;;;124.35;112.65;;;9.70;46.50;;;;;;5034976;28;20053;-74
2022/04/18 05:03:05;;;;;;;121.43;110.10;;;9.70;46.60;;;;;;5035191;28;20060;-74
2022/04/18 05:05:34;;;;;;;122.50;111.00;;;9.70;46.80;;;;;;5019990;28;20077;-74
2022/04/18 05:08:03;;;;;;;123.00;111.35;;;9.60;46.90;;;;;;5055252;28;20104;-74
2022/04/18 05:10:32;;;;;;;123.03;111.47;;;9.60;47.00;;;;;;5039003;28;20056;-74
2022/04/18 05:13:04;;;;;;;121.95;110.32;;;9.60;47.10;;;;;;5038655;28;20585;-74
2022/04/18 05:15:32;;;;;;;123.63;111.90;;;9.60;47.20;;;;;;5038455;28;20064;-74
2022/04/18 05:18:18;;;;;;;123.22;111.43;;;9.60;47.40;;;;;;5035946;28;20050;-75
2022/04/18 05:20:48;;;;;;;121.35;110.05;;;9.50;47.40;;;;;;5038551;28;20066;-74
2022/04/18 05:23:19;;;;;;;122.65;111.25;;;9.50;47.60;;;;;;5021563;28;20042;-74
2022/04/18 05:25:46;;;;;;;121.43;109.72;;;9.50;47.60;;;;;;5021741;28;20521;-74
2022/04/18 05:28:13;;;;;;;122.82;111.05;;;9.50;47.70;;;;;;5038309;28;20132;-74
2022/04/18 05:30:47;;;;;;;122.18;110.68;;;9.50;47.80;;;;;;5018641;28;20049;-74
2022/04/18 05:33:14;;;;;;;120.95;109.65;;;9.40;48.00;;;;;;5018346;28;20050;-74
2022/04/18 05:36:03;;;;;;;121.97;110.53;;;9.40;48.30;;;;;;5018470;28;20786;-74
2022/04/18 05:38:34;;;;;;;120.72;109.30;;;9.40;48.70;;;;;;5002068;28;20048;-74
2022/04/18 05:41:07;;;;;;;121.82;110.28;;;9.40;48.80;;;;;;5034897;28;20511;-74
2022/04/18 05:43:35;;;;;;;123.32;111.68;;;9.40;49.10;;;;;;5034951;28;20539;-74
2022/04/18 05:46:02;;;;;;;121.13;109.63;;;9.40;49.20;;;;;;5018675;28;20072;-74
2022/04/18 05:48:29;;;;;;;121.15;109.75;;;9.40;49.30;;;;;;5017902;28;20133;-74
2022/04/18 05:50:58;;;;;;;121.65;110.18;;;9.40;49.30;;;;;;5017879;28;20053;-74
2022/04/18 05:53:31;;;;;;;121.85;110.35;;;9.40;49.20;;;;;;5014568;28;20538;-74
2022/04/18 05:56:05;;;;;;;122.05;110.32;;;9.30;49.30;;;;;;5017697;28;20057;-75
2022/04/18 05:59:04;;;;;;;121.75;110.25;;;9.30;49.60;;;;;;5013109;28;20180;-75
2022/04/18 06:01:51;;;;;;;121.65;110.00;;;9.20;49.90;;;;;;5034850;28;20053;-75
2022/04/18 06:04:44;;;;;;;121.07;109.43;;;9.20;50.20;;;;;;5032399;28;20077;-75
2022/04/18 06:07:35;;;;;;;123.38;111.82;;;9.20;50.20;;;;;;5011232;28;20056;-75
2022/04/18 06:10:23;;;;;;;123.20;111.60;;;9.20;50.50;;;;;;5003933;28;20042;-75
2022/04/18 06:13:00;;;;;;;121.78;110.28;;;9.10;50.80;;;;;;5015785;28;20132;-75
2022/04/18 06:15:27;;;;;;;121.82;110.32;;;9.10;51.10;;;;;;5000625;28;20053;-75
2022/04/18 06:17:54;;;;;;;123.72;112.07;;;9.10;51.50;;;;;;4999682;28;20054;-75
2022/04/18 06:20:21;;;;;;;121.90;110.20;;;9.10;51.70;;;;;;5017369;28;20132;-75
2022/04/18 06:22:49;;;;;;;127.95;116.15;;;9.10;52.00;;;;;;4994047;28;20057;-75
2022/04/18 06:25:16;;;;;;;122.05;110.38;;;9.10;52.50;;;;;;4983412;28;20046;-75
2022/04/18 06:27:46;;;;;;;125.25;113.40;;;9.10;52.80;;;;;;4997162;28;20041;-75
2022/04/18 06:30:13;;;;;;;124.68;112.93;;;9.20;53.20;;;;;;4998019;28;20083;-75
2022/04/18 06:33:00;;;;;;;124.03;111.97;;;9.20;53.70;;;;;;5029212;28;20060;-75
2022/04/18 06:35:27;;;;;;;124.43;112.60;;;9.20;54.10;;;;;;5015628;28;20140;-75
2022/04/18 06:37:55;;;;;;;124.70;112.88;;;9.30;54.80;;;;;;4996665;28;20177;-75
2022/04/18 06:40:47;;;;;;;127.57;113.75;;;9.30;55.30;;;;;;5012129;28;20077;-75
2022/04/18 06:43:18;;;;;;;122.00;110.15;;;9.30;55.30;;;;;;5012911;28;20496;-76
2022/04/18 06:45:51;;;;;;;120.38;108.97;;;9.40;55.30;;;;;;5007915;28;20786;-75
2022/04/18 06:48:18;;;;;;;121.72;110.00;;;9.40;55.10;;;;;;4988226;28;20049;-75
2022/04/18 06:51:17;;;;;;;120.43;108.93;;;9.50;55.60;;;;;;5007090;28;20070;-75
2022/04/18 06:53:56;;;;;;;119.80;108.30;;;9.50;55.00;;;;;;5009493;28;20530;-75
2022/04/18 06:57:01;;;;;;;122.25;110.35;;;9.60;55.30;;;;;;5010687;28;20504;-75
2022/04/18 06:59:54;;;;;;;120.60;109.00;;;9.60;55.60;;;;;;4997063;28;20072;-75
2022/04/18 07:02:23;;;;;;;123.80;111.90;;;9.70;55.80;;;;;;4986870;28;20125;-75
2022/04/18 07:04:53;;;;;;;121.00;109.40;;;9.70;56.10;;;;;;4998545;28;20133;-75
2022/04/18 07:07:20;;;;;;;120.50;108.85;;;9.80;55.90;;;;;;4983054;28;20047;-76
2022/04/18 07:09:47;;;;;;;120.38;108.95;;;9.80;56.00;;;;;;4988915;28;20097;-76
2022/04/18 07:12:22;;;;;;;119.85;108.35;;;9.90;56.00;;;;;;4991663;28;20050;-76
2022/04/18 07:14:49;;;;;;;118.68;107.38;;;9.90;55.80;;;;;;5013498;28;20145;-76
2022/04/18 07:17:17;;;;;;;121.65;109.95;;;10.00;56.00;;;;;;5005601;28;20050;-75
2022/04/18 07:19:44;;;;;;;119.22;107.93;;;10.00;56.30;;;;;;5005395;28;20168;-76
2022/04/18 07:22:18;;;;;;;119.57;108.15;;;10.10;55.70;;;;;;5012569;28;20108;-76
2022/04/18 07:24:51;;;;;;;118.75;107.55;;;10.10;55.40;;;;;;4986139;28;20512;-76
2022/04/18 07:27:23;;;;;;;120.65;109.18;;;10.20;55.40;;;;;;5013931;28;20050;-76
2022/04/18 07:29:58;;;;;;;119.70;108.22;;;10.20;55.60;;;;;;4989926;28;20498;-75
2022/04/18 07:32:26;;;;;;;122.45;110.85;;;10.30;55.60;;;;;;5014420;28;20053;-76
2022/04/18 07:35:01;;;;;;;118.63;107.43;;;10.30;55.20;;;;;;4998811;28;20053;-76
2022/04/18 07:37:36;;;;;;;122.75;110.75;;;10.40;55.40;;;;;;4997315;28;20046;-76
2022/04/18 07:40:04;;;;;;;120.47;109.18;;;10.50;55.30;;;;;;4986815;28;20050;-77
2022/04/18 07:42:31;;;;;;;119.20;108.00;;;10.50;54.30;;;;;;4991034;28;20049;-81
2022/04/18 07:44:59;;;;;;;118.32;107.35;;;10.60;53.70;;;;;;4998907;28;20080;-75
2022/04/18 07:47:28;;;;;;;119.72;108.30;;;10.70;53.70;;;;;;4998442;28;20053;-77
2022/04/18 07:49:55;;;;;;;118.05;106.85;;;10.70;53.60;;;;;;4998656;28;20523;-77
2022/04/18 07:52:22;;;;;;;119.35;108.13;;;10.80;53.20;;;;;;4997874;28;20049;-76
2022/04/18 07:54:58;;;;;;;117.03;105.93;;;10.90;52.90;;;;;;4999998;28;20428;-75
2022/04/18 07:57:25;;;;;;;116.68;105.63;;;11.00;52.50;;;;;;4982794;28;20062;-76
2022/04/18 08:00:02;;;;;;;120.20;108.80;;;11.10;52.20;;;;;;5015034;28;20495;-78
2022/04/18 08:02:33;;;;;;;117.07;106.07;;;11.10;51.90;;;;;;5014740;28;20050;-77
2022/04/18 08:05:12;;;;;;;116.05;105.18;;;11.20;52.60;;;;;;5015395;28;20570;-76
2022/04/18 08:07:48;;;;;;;117.05;106.18;;;11.20;52.80;;;;;;4999099;28;20038;-81
2022/04/18 08:10:16;;;;;;;116.35;105.38;;;11.40;52.60;;;;;;5016684;28;20054;-82
2022/04/18 08:12:43;;;;;;;121.65;110.38;;;11.40;52.10;;;;;;5000063;28;21877;-81
2022/04/18 08:15:28;;;;;;;117.28;106.38;;;11.50;51.90;;;;;;5015826;28;20407;-81
2022/04/18 08:17:57;;;;;;;117.53;106.30;;;11.60;52.00;;;;;;4999123;28;20109;-81
2022/04/18 08:20:43;;;;;;;118.85;107.70;;;11.60;52.00;;;;;;4996506;28;20062;-81
2022/04/18 08:23:10;;;;;;;117.53;106.53;;;11.70;52.20;;;;;;4997159;28;20078;-79
2022/04/18 08:26:13;;;;;;;117.80;106.88;;;11.80;52.60;;;;;;4974621;28;20090;-79
2022/04/18 08:28:52;;;;;;;118.25;107.38;;;11.90;52.70;;;;;;4976068;28;20050;-79
2022/04/18 08:31:20;;;;;;;120.28;109.07;;;11.90;52.00;;;;;;4994924;28;20106;-76
2022/04/18 08:34:09;;;;;;;118.30;107.30;;;12.00;51.60;;;;;;5010932;28;20054;-80
2022/04/18 08:36:36;;;;;;;121.13;109.57;;;12.10;51.30;;;;;;4997128;28;20050;-77
2022/04/18 08:39:07;;;;;;;117.32;106.32;;;12.20;51.70;;;;;;5011792;28;20042;-76
2022/04/18 08:41:50;;;;;;;118.30;107.50;;;12.20;52.20;;;;;;4996164;28;20448;-76
2022/04/18 08:44:26;;;;;;;119.20;108.20;;;12.30;52.00;;;;;;4999091;28;20052;-78
2022/04/18 08:46:53;;;;;;;118.63;107.57;;;12.40;51.40;;;;;;5015840;28;20057;-80
2022/04/18 08:54:57;;;;;;;116.95;106.15;;;12.70;50.80;;;;;;5015172;28;20050;-78
2022/04/18 08:57:24;;;;;;;117.32;106.47;;;12.80;49.40;;;;;;5004453;28;20125;-78
2022/04/18 08:59:52;;;;;;;118.25;107.45;;;12.90;49.90;;;;;;4998840;28;20100;-84
2022/04/18 09:02:19;;;;;;;117.80;107.05;;;13.00;50.30;;;;;;4998374;28;20137;-78
2022/04/18 09:05:10;;;;;;;118.60;107.80;;;13.10;50.50;;;;;;5015136;28;20053;-76
2022/04/18 09:07:37;;;;;;;120.03;108.32;;;13.20;50.70;;;;;;4998132;28;20189;-77
2022/04/18 09:10:05;;;;;;;119.53;107.97;;;13.30;50.40;;;;;;5014164;28;20546;-76
2022/04/18 09:12:32;;;;;;;120.22;109.32;;;13.30;50.10;;;;;;4997122;28;20231;-75
2022/04/18 09:15:13;;;;;;;119.38;108.53;;;13.40;50.50;;;;;;5009572;28;20057;-75
2022/04/18 09:17:43;;;;;;;119.20;108.30;;;13.50;51.00;;;;;;5014424;28;20050;-76
2022/04/18 09:20:40;;;;;;;117.95;107.22;;;13.50;50.10;;;;;;4997603;28;20046;-75
2022/04/18 09:23:20;;;;;;;120.20;108.55;;;13.70;49.70;;;;;;5010933;28;20050;-75
2022/04/18 09:25:55;;;;;;;119.47;108.47;;;13.80;50.30;;;;;;5014047;28;20054;-75
2022/04/18 09:28:27;;;;;;;121.50;110.60;;;13.90;50.00;;;;;;5012820;28;20104;-76
2022/04/18 09:31:02;;;;;;;123.13;112.13;;;13.90;50.40;;;;;;4998519;28;20048;-75
2022/04/18 09:33:32;;;;;;;118.93;108.10;;;14.00;51.10;;;;;;4998114;28;20081;-76
2022/04/18 09:36:10;;;;;;;124.90;113.97;;;14.20;51.10;;;;;;5011647;28;20076;-77
2022/04/18 09:38:41;;;;;;;123.43;112.43;;;14.30;50.50;;;;;;4998640;28;20049;-76
2022/04/18 09:41:15;;;;;;;123.60;112.53;;;14.30;49.90;;;;;;5032131;28;20074;-76
2022/04/18 09:43:45;;;;;;;121.88;111.00;;;14.40;50.10;;;;;;4998415;28;20050;-77
2022/04/18 09:46:23;;;;;;;124.30;113.30;;;14.50;50.70;;;;;;4996760;28;20145;-76
2022/04/18 09:49:04;;;;;;;126.00;114.93;;;14.70;49.60;;;;;;4996398;28;20123;-76
2022/04/18 09:51:37;;;;;;;124.68;113.35;;;14.70;49.30;;;;;;5014860;28;20393;-80
2022/04/18 09:54:13;;;;;;;121.85;111.03;;;14.80;49.80;;;;;;4987903;28;20050;-78
2022/04/18 09:56:49;;;;;;;124.65;113.85;;;14.90;49.70;;;;;;4999474;28;20497;-77
2022/04/18 09:59:17;;;;;;;124.10;113.47;;;15.00;50.00;;;;;;5032672;28;20058;-77
2022/04/18 10:01:45;;;;;;;124.80;113.75;;;15.10;49.60;;;;;;5015858;28;20053;-77
2022/04/18 10:04:12;;;;;;;124.80;114.00;;;15.20;50.10;;;;;;5016347;28;20058;-76
2022/04/18 10:06:44;;;;;;;134.40;123.00;;;15.30;50.00;;;;;;5016648;28;20060;-78
2022/04/18 10:09:13;;;;;;;126.05;115.25;;;15.40;49.70;;;;;;5015751;28;20046;-78
2022/04/18 10:11:40;;;;;;;131.90;120.90;;;15.50;48.40;;;;;;5016775;28;20054;-77
2022/04/18 10:14:07;;;;;;;124.35;113.95;;;15.70;48.30;;;;;;5032544;28;20064;-78
2022/04/18 10:16:35;;;;;;;124.10;113.45;;;15.70;47.80;;;;;;5017734;28;20139;-78
2022/04/18 10:19:08;;;;;;;123.50;113.10;;;15.90;47.60;;;;;;5017317;28;20054;-79
2022/04/18 10:21:37;;;;;;;124.97;114.43;;;16.00;47.10;;;;;;5017510;28;20503;-78
2022/04/18 10:24:52;;;;;;;126.45;114.40;;;16.10;46.30;;;;;;5017580;28;20054;-78
2022/04/18 10:27:33;;;;;;;123.18;112.57;;;16.10;46.70;;;;;;4937425;28;20063;-80
2022/04/18 10:30:02;;;;;;;123.40;113.10;;;16.20;44.90;;;;;;5006611;28;20128;-82
2022/04/18 10:32:30;;;;;;;122.47;111.80;;;16.30;45.50;;;;;;5016970;28;20054;-77
2022/04/18 10:35:00;;;;;;;124.93;112.50;;;16.40;45.50;;;;;;5016575;28;20810;-78
2022/04/18 10:37:29;;;;;;;123.05;112.97;;;16.50;45.90;;;;;;5035135;28;20061;-78
2022/04/18 10:39:59;;;;;;;123.07;112.88;;;16.60;44.90;;;;;;5017334;28;20050;-79
2022/04/18 10:42:32;;;;;;;123.15;112.63;;;16.70;43.70;;;;;;5001347;28;20196;-79
2022/04/18 10:45:07;;;;;;;122.88;112.70;;;16.70;43.60;;;;;;5017784;28;20058;-80
2022/04/18 10:48:04;;;;;;;123.88;113.70;;;16.80;44.50;;;;;;5035666;28;20057;-81
2022/04/18 10:50:36;;;;;;;123.35;113.15;;;16.90;43.50;;;;;;5001289;28;20049;-78
2022/04/18 10:53:15;;;;;;;122.95;112.82;;;17.00;43.60;;;;;;5017711;28;20482;-79
2022/04/18 10:56:12;;;;;;;122.57;112.57;;;17.10;43.20;;;;;;5017696;28;20058;-84
2022/04/18 10:58:43;;;;;;;121.47;111.68;;;17.20;42.60;;;;;;5017445;28;20503;-81
2022/04/18 11:01:11;;;;;;;123.63;113.80;;;17.30;42.30;;;;;;5017393;28;20057;-80
2022/04/18 11:04:02;;;;;;;123.22;113.43;;;17.40;42.30;;;;;;5034291;28;20046;-82
2022/04/18 11:06:52;;;;;;;122.47;112.68;;;17.60;42.20;;;;;;4998785;28;20054;-80
2022/04/18 11:09:23;;;;;;;123.20;113.40;;;17.60;42.80;;;;;;4981776;28;20057;-81
2022/04/18 11:11:55;;;;;;;123.57;113.78;;;17.70;42.70;;;;;;4997806;28;20066;-83
2022/04/18 11:14:23;;;;;;;121.35;111.85;;;17.80;42.80;;;;;;4988139;28;20061;-88
2022/04/18 11:17:01;;;;;;;123.07;113.18;;;17.90;40.20;;;;;;4999926;28;20054;-79
2022/04/18 11:19:30;;;;;;;124.53;114.85;;;18.00;40.90;;;;;;5010161;28;20065;-85
2022/04/18 11:22:21;;;;;;;129.00;118.82;;;18.10;41.50;;;;;;4999045;28;20109;-83
2022/04/18 11:25:02;;;;;;;125.53;115.75;;;18.20;41.50;;;;;;4975176;28;20082;-82
2022/04/18 11:27:38;;;;;;;124.30;114.60;;;18.30;40.50;;;;;;4996368;28;20051;-82
2022/04/18 11:30:08;;;;;;;124.10;114.35;;;18.30;38.70;;;;;;4995495;28;20051;-82
2022/04/18 11:32:37;;;;;;;132.38;119.03;;;18.50;40.10;;;;;;5011829;28;20097;-84
2022/04/18 11:35:07;;;;;;;126.85;117.22;;;18.50;40.40;;;;;;4990436;28;20141;-83
2022/04/18 11:37:36;;;;;;;133.80;122.07;;;18.70;40.10;;;;;;5026665;28;20092;-83
2022/04/18 11:40:06;;;;;;;126.95;117.25;;;18.80;40.80;;;;;;5008651;28;20055;-84
2022/04/18 11:42:33;;;;;;;126.40;116.75;;;18.90;39.30;;;;;;4999561;28;20857;-85
2022/04/18 11:45:03;;;;;;;126.47;116.53;;;19.00;38.80;;;;;;4999136;28;20952;-79
2022/04/18 11:47:32;;;;;;;126.10;116.50;;;19.00;38.20;;;;;;5014423;28;20050;-83
2022/04/18 11:50:01;;;;;;;125.60;116.20;;;19.10;38.20;;;;;;4999755;28;20080;-85
2022/04/18 11:52:30;;;;;;;126.78;117.22;;;19.20;39.10;;;;;;4994650;28;20054;-85
2022/04/18 11:55:00;;;;;;;131.20;121.50;;;19.30;39.20;;;;;;5006977;28;20059;-86
2022/04/18 11:57:28;;;;;;;126.22;116.70;;;19.40;39.00;;;;;;5000835;28;20064;-91
2022/04/18 11:59:56;;;;;;;129.27;119.57;;;19.50;39.50;;;;;;4997043;28;20052;-83
2022/04/18 12:08:01;;;;;;;140.48;130.05;;;19.70;36.50;;;;;;4998003;28;20077;-81
2022/04/18 12:10:31;;;;;;;130.18;120.28;;;19.70;36.40;;;;;;5032793;28;20077;-82
2022/04/18 12:13:00;;;;;;;131.10;121.30;;;19.70;36.70;;;;;;5025788;28;20093;-81
2022/04/18 12:15:29;;;;;;;130.80;121.00;;;19.80;36.60;;;;;;5005704;28;20103;-82
2022/04/18 12:17:58;;;;;;;130.25;120.45;;;19.90;36.80;;;;;;5005089;28;20078;-84
2022/04/18 12:20:28;;;;;;;131.20;121.10;;;19.90;36.10;;;;;;5008415;28;20050;-83
2022/04/18 12:22:59;;;;;;;132.00;122.18;;;20.00;36.30;;;;;;5007811;28;21347;-87
2022/04/18 12:25:28;;;;;;;134.80;123.88;;;20.00;36.90;;;;;;5001068;28;20059;-84
2022/04/18 12:27:56;;;;;;;132.63;122.65;;;20.10;37.60;;;;;;5011248;28;20050;-87
2022/04/18 12:30:23;;;;;;;134.05;124.15;;;20.20;38.00;;;;;;4996002;28;20060;-83
2022/04/18 12:32:50;;;;;;;132.52;122.68;;;20.30;37.90;;;;;;4985659;28;20132;-88
2022/04/18 12:35:36;;;;;;;132.80;123.00;;;20.40;38.20;;;;;;4998600;28;20043;-89
2022/04/18 12:38:05;;;;;;;134.00;123.90;;;20.50;37.60;;;;;;4996253;28;20547;-84
2022/04/18 12:40:38;;;;;;;137.30;126.32;;;20.60;36.00;;;;;;4997986;28;20098;-87
2022/04/18 12:43:08;;;;;;;130.13;120.43;;;20.60;36.80;;;;;;5012962;28;20050;-91
2022/04/18 12:45:48;;;;;;;133.70;123.40;;;20.70;37.30;;;;;;5036659;28;20058;-84
2022/04/18 12:48:24;;;;;;;134.27;124.50;;;20.80;36.10;;;;;;4982812;28;20149;-91
2022/04/18 12:50:53;;;;;;;133.52;123.72;;;20.90;35.50;;;;;;4981002;28;20141;-87
2022/04/18 12:53:21;;;;;;;136.65;126.57;;;20.90;35.50;;;;;;4992849;28;20050;-83
2022/04/18 12:56:03;;;;;;;136.50;126.65;;;21.00;35.30;;;;;;5014690;28;20074;-83
2022/04/18 12:58:37;;;;;;;135.05;125.15;;;21.00;35.30;;;;;;5015209;28;20060;-82
2022/04/18 13:01:04;;;;;;;130.52;120.95;;;21.00;34.60;;;;;;4997918;28;20136;-81